Time;durP1;ratioP1;P1;durP2;ratioP2;P2;SDS_P1;SDS_P2;PMS_P1;PMS_P2;Temp;Humidity;BMP_temperature;BMP_pressure;BME280_temperature;BME280_humidity;BME280_pressure;Samples;Min_cycle;Max_cycle;Signal;HPM_P1;HPM_P2
2021/08/21 00:02:11;;;;;;;9.95;6.70;;;15.30;99.90;;;;;;2603918;46;21701;31
2021/08/21 00:04:43;;;;;;;6.38;5.55;;;15.30;99.90;;;;;;2604057;46;20031;31
2021/08/21 00:07:15;;;;;;;7.75;6.00;;;15.30;99.90;;;;;;2603852;46;20073;31
2021/08/21 00:09:46;;;;;;;13.75;7.70;;;15.30;99.90;;;;;;2604039;46;20826;31
2021/08/21 00:12:21;;;;;;;7.20;5.75;;;15.30;99.90;;;;;;2702074;39;20389;31
2021/08/21 00:14:53;;;;;;;7.28;4.70;;;15.30;99.90;;;;;;2603870;46;20038;31
2021/08/21 00:17:24;;;;;;;9.32;6.90;;;15.20;99.90;;;;;;2604003;46;20034;31
2021/08/21 00:19:55;;;;;;;11.52;5.43;;;15.20;99.90;;;;;;2773743;31;21524;31
2021/08/21 00:22:29;;;;;;;8.30;4.82;;;15.20;99.90;;;;;;2603475;54;20050;31
2021/08/21 00:25:00;;;;;;;5.88;5.15;;;15.20;99.90;;;;;;2603924;46;20795;31
2021/08/21 00:27:33;;;;;;;8.25;5.18;;;15.10;99.90;;;;;;2603546;54;20875;31
2021/08/21 00:30:07;;;;;;;6.50;4.95;;;15.10;99.90;;;;;;2604126;46;20052;31
2021/08/21 00:32:39;;;;;;;7.40;5.55;;;15.20;99.90;;;;;;2603947;46;20898;31
2021/08/21 00:35:10;;;;;;;9.50;7.38;;;15.20;99.90;;;;;;2613065;31;20568;31
2021/08/21 00:37:42;;;;;;;7.67;5.60;;;15.00;99.90;;;;;;2603883;46;20850;31
2021/08/21 00:40:14;;;;;;;6.53;5.30;;;15.10;99.90;;;;;;2603422;54;20080;31
2021/08/21 00:42:44;;;;;;;6.90;6.00;;;15.00;99.90;;;;;;2603388;54;20038;31
2021/08/21 00:45:20;;;;;;;7.20;5.05;;;15.00;99.90;;;;;;2603826;46;20042;31
2021/08/21 00:47:53;;;;;;;5.03;4.28;;;15.00;99.90;;;;;;2603352;54;21381;31
2021/08/21 00:50:25;;;;;;;7.32;5.55;;;15.00;99.90;;;;;;2602664;54;21422;31
2021/08/21 00:52:56;;;;;;;8.68;6.50;;;14.90;99.90;;;;;;2702397;39;20943;31
2021/08/21 00:55:31;;;;;;;9.05;6.80;;;14.90;99.90;;;;;;2603145;46;20756;31
2021/08/21 00:58:03;;;;;;;9.15;6.95;;;14.90;99.90;;;;;;2602862;54;20022;31
2021/08/21 01:00:35;;;;;;;9.50;6.00;;;14.90;99.90;;;;;;2603688;46;20033;31
2021/08/21 01:03:07;;;;;;;9.00;5.10;;;14.80;99.90;;;;;;2603679;46;20038;31
2021/08/21 01:05:39;;;;;;;7.45;5.15;;;14.80;99.90;;;;;;2603322;54;20030;31
2021/08/21 01:08:12;;;;;;;7.05;5.80;;;14.80;99.90;;;;;;2603858;46;20037;31
2021/08/21 01:11:00;;;;;;;9.18;6.80;;;14.80;99.90;;;;;;2603633;46;21234;31
2021/08/21 01:13:33;;;;;;;9.20;5.50;;;14.70;99.90;;;;;;2773393;31;20700;31
2021/08/21 01:16:05;;;;;;;7.20;5.63;;;14.60;99.90;;;;;;2603424;46;20030;31
2021/08/21 01:18:42;;;;;;;9.35;5.95;;;14.60;99.90;;;;;;2603272;54;20061;31
2021/08/21 01:21:15;;;;;;;5.38;4.63;;;14.60;99.90;;;;;;2603700;46;20042;31
2021/08/21 01:23:47;;;;;;;4.20;3.70;;;14.50;99.90;;;;;;2603295;54;21363;31
2021/08/21 01:26:29;;;;;;;5.78;4.28;;;14.40;99.90;;;;;;2603674;46;20125;31
2021/08/21 01:29:11;;;;;;;5.40;4.05;;;14.40;99.90;;;;;;2603639;47;20132;31
2021/08/21 01:32:16;;;;;;;8.00;4.27;;;14.40;99.90;;;;;;2603459;47;20042;31
2021/08/21 01:34:52;;;;;;;6.70;4.55;;;14.40;99.90;;;;;;2701696;39;20489;31
2021/08/21 01:37:27;;;;;;;5.47;3.92;;;14.30;99.90;;;;;;2603579;47;20911;31
2021/08/21 01:40:15;;;;;;;5.13;3.83;;;14.30;99.90;;;;;;2603683;47;20026;31
2021/08/21 01:42:46;;;;;;;3.95;3.55;;;14.30;99.90;;;;;;2702207;39;20498;31
2021/08/21 01:45:18;;;;;;;5.68;3.55;;;14.20;99.90;;;;;;2603478;47;20109;31
2021/08/21 01:47:50;;;;;;;5.43;3.40;;;14.20;99.90;;;;;;2603558;47;20090;31
2021/08/21 01:50:24;;;;;;;4.18;3.08;;;14.20;99.90;;;;;;2603723;47;20452;31
2021/08/21 01:52:58;;;;;;;6.05;4.28;;;14.10;99.90;;;;;;2773393;31;20423;31
2021/08/21 01:55:35;;;;;;;4.20;3.20;;;14.10;99.90;;;;;;2603571;47;20904;31
2021/08/21 01:58:21;;;;;;;3.97;3.15;;;14.10;99.90;;;;;;2701988;39;20529;31
2021/08/21 02:00:55;;;;;;;4.13;2.90;;;14.10;99.90;;;;;;2603214;54;20031;31
2021/08/21 02:03:32;;;;;;;6.20;3.65;;;14.00;99.90;;;;;;2603539;47;20034;31
2021/08/21 02:06:07;;;;;;;4.60;3.55;;;14.00;99.90;;;;;;2603598;47;21254;31
2021/08/21 02:08:40;;;;;;;3.75;3.10;;;14.00;99.90;;;;;;2603384;47;20931;31
2021/08/21 02:11:13;;;;;;;5.13;3.50;;;14.00;99.90;;;;;;2602803;47;20101;31
2021/08/21 02:13:47;;;;;;;5.97;4.30;;;13.90;99.90;;;;;;2701660;39;20939;31
2021/08/21 02:16:19;;;;;;;8.50;4.20;;;13.90;99.90;;;;;;2603190;47;20057;31
2021/08/21 02:18:54;;;;;;;6.18;4.05;;;13.90;99.90;;;;;;2603247;47;20081;31
2021/08/21 02:21:45;;;;;;;10.15;6.05;;;13.80;99.90;;;;;;2603262;54;20906;31
2021/08/21 02:24:18;;;;;;;13.15;6.78;;;13.80;99.90;;;;;;2603639;46;20060;31
2021/08/21 02:26:51;;;;;;;10.15;6.15;;;13.70;99.90;;;;;;2604302;46;20038;31
2021/08/21 02:29:21;;;;;;;8.35;6.00;;;13.70;99.90;;;;;;2604327;46;20679;31
2021/08/21 02:31:59;;;;;;;6.78;4.35;;;13.70;99.90;;;;;;2604394;46;20034;31
2021/08/21 02:34:33;;;;;;;5.75;4.10;;;13.60;99.90;;;;;;2604313;46;20026;31
2021/08/21 02:37:05;;;;;;;4.15;2.85;;;13.60;99.90;;;;;;2603708;46;20030;31
2021/08/21 02:39:38;;;;;;;5.32;3.03;;;13.60;99.90;;;;;;2604350;46;20053;31
2021/08/21 02:42:11;;;;;;;8.48;4.47;;;13.50;99.90;;;;;;2604242;46;20026;31
2021/08/21 02:44:43;;;;;;;10.82;5.80;;;13.50;99.90;;;;;;2603761;54;20881;31
2021/08/21 02:47:17;;;;;;;13.02;5.95;;;13.50;99.90;;;;;;2604315;46;20885;31
2021/08/21 02:49:48;;;;;;;14.63;5.53;;;13.40;99.90;;;;;;2603644;46;20038;31
2021/08/21 02:52:21;;;;;;;5.95;3.97;;;13.40;99.90;;;;;;2603386;46;20923;31
2021/08/21 02:54:54;;;;;;;4.10;2.80;;;13.30;99.90;;;;;;2604163;46;21240;31
2021/08/21 02:57:27;;;;;;;5.10;3.20;;;13.30;99.90;;;;;;2604092;46;20089;31
2021/08/21 03:00:02;;;;;;;5.07;4.00;;;13.30;99.90;;;;;;2603662;54;20037;31
2021/08/21 03:02:42;;;;;;;5.13;3.17;;;13.30;99.90;;;;;;2603725;54;20109;31
2021/08/21 03:05:17;;;;;;;4.45;3.55;;;13.20;99.90;;;;;;2603978;46;20859;31
2021/08/21 03:07:53;;;;;;;4.40;2.50;;;13.20;99.90;;;;;;2603420;54;20955;31
2021/08/21 03:10:26;;;;;;;;;;;13.10;99.90;;;;;;2604022;47;20441;31
2021/08/21 03:13:03;;;;;;;3.95;2.35;;;13.20;99.90;;;;;;2604246;46;19935;31
2021/08/21 03:15:37;;;;;;;4.75;2.70;;;13.20;99.90;;;;;;2604024;46;21200;31
2021/08/21 03:18:10;;;;;;;5.05;2.83;;;13.20;99.90;;;;;;2603865;46;20026;31
2021/08/21 03:20:50;;;;;;;5.95;1.95;;;13.20;99.90;;;;;;2603285;46;20795;31
2021/08/21 03:23:22;;;;;;;15.50;4.20;;;13.20;99.90;;;;;;2603582;54;20923;31
2021/08/21 03:25:53;;;;;;;29.35;4.20;;;13.20;99.90;;;;;;2604201;46;20037;31
2021/08/21 03:28:26;;;;;;;9.18;3.92;;;13.10;99.90;;;;;;2603946;46;20088;31
2021/08/21 03:30:57;;;;;;;7.90;5.10;;;13.10;99.90;;;;;;2603652;54;21229;31
2021/08/21 03:33:32;;;;;;;7.50;3.38;;;13.10;99.90;;;;;;2603187;46;20030;31
2021/08/21 03:36:05;;;;;;;7.70;3.53;;;13.00;99.90;;;;;;2603274;46;20045;31
2021/08/21 03:38:40;;;;;;;8.85;3.30;;;13.10;99.90;;;;;;2603859;46;20027;31
2021/08/21 03:41:19;;;;;;;4.65;2.20;;;13.10;99.90;;;;;;2603982;46;20058;31
2021/08/21 03:44:21;;;;;;;8.33;3.87;;;13.10;99.90;;;;;;2603849;46;20074;31
2021/08/21 03:46:58;;;;;;;5.85;2.85;;;13.10;99.90;;;;;;2604066;46;20089;31
2021/08/21 03:49:34;;;;;;;5.20;3.70;;;13.10;99.90;;;;;;2603874;46;20772;31
2021/08/21 03:52:05;;;;;;;10.25;3.35;;;13.00;99.90;;;;;;2603057;54;20053;31
2021/08/21 03:54:38;;;;;;;9.40;3.35;;;13.00;99.90;;;;;;2603995;46;20918;31
2021/08/21 03:57:09;;;;;;;11.60;3.15;;;13.00;99.90;;;;;;2603935;46;20863;31
2021/08/21 03:59:43;;;;;;;4.90;3.43;;;13.00;99.90;;;;;;2603862;46;20030;31
2021/08/21 04:02:17;;;;;;;5.03;3.30;;;12.90;99.90;;;;;;2603618;54;20815;31
2021/08/21 04:04:50;;;;;;;5.15;3.45;;;12.90;99.90;;;;;;2603633;54;20888;31
2021/08/21 04:07:22;;;;;;;7.20;2.30;;;12.90;99.90;;;;;;2603997;46;20955;31
2021/08/21 04:09:56;;;;;;;3.60;2.40;;;12.90;99.90;;;;;;2604050;46;20098;31
2021/08/21 04:12:28;;;;;;;6.15;3.80;;;12.90;99.90;;;;;;2603469;54;20837;31
2021/08/21 04:15:13;;;;;;;13.70;5.30;;;13.00;99.90;;;;;;2603999;46;20860;31
2021/08/21 04:17:49;;;;;;;12.52;5.55;;;13.00;99.90;;;;;;2603582;46;20880;31
2021/08/21 04:20:28;;;;;;;18.27;5.93;;;13.00;99.90;;;;;;2603509;54;20085;31
2021/08/21 04:23:02;;;;;;;6.87;3.77;;;13.10;99.90;;;;;;2603951;46;20075;31
2021/08/21 04:25:34;;;;;;;9.38;6.03;;;13.10;99.90;;;;;;2603871;46;19997;31
2021/08/21 04:28:09;;;;;;;;;;;13.00;99.90;;;;;;2603726;54;20092;31
2021/08/21 04:30:42;;;;;;;7.95;4.25;;;13.10;99.90;;;;;;2603355;54;19934;31
2021/08/21 04:33:15;;;;;;;9.00;5.55;;;13.10;99.90;;;;;;2603907;46;20092;31
2021/08/21 04:35:47;;;;;;;6.20;4.43;;;13.10;99.90;;;;;;2603950;46;20869;31
2021/08/21 04:38:21;;;;;;;6.07;4.50;;;13.10;99.90;;;;;;2602917;46;20038;31
2021/08/21 04:41:04;;;;;;;9.02;6.82;;;13.20;99.90;;;;;;2603515;54;20053;31
2021/08/21 04:43:37;;;;;;;7.80;6.20;;;13.30;99.90;;;;;;2603834;46;20899;31
2021/08/21 04:46:10;;;;;;;6.00;4.80;;;13.40;99.90;;;;;;2603523;47;20041;31
2021/08/21 04:48:44;;;;;;;8.07;5.15;;;13.60;99.90;;;;;;2603305;46;20876;31
2021/08/21 04:51:17;;;;;;;6.50;5.50;;;13.70;99.90;;;;;;2603073;46;20034;31
2021/08/21 04:53:50;;;;;;;7.15;5.50;;;13.90;99.90;;;;;;2603271;46;20916;31
2021/08/21 04:56:23;;;;;;;12.40;7.85;;;14.20;99.90;;;;;;2702175;39;20533;31
2021/08/21 04:59:28;;;;;;;7.80;6.15;;;14.30;99.90;;;;;;2603395;54;20033;31
2021/08/21 05:02:04;;;;;;;8.10;5.30;;;14.60;99.90;;;;;;2602961;46;20034;31
2021/08/21 05:04:40;;;;;;;6.35;5.65;;;14.80;99.90;;;;;;2603717;46;20034;31
2021/08/21 05:07:15;;;;;;;7.50;5.35;;;14.90;99.90;;;;;;2603018;54;20028;31
2021/08/21 05:09:51;;;;;;;6.55;5.30;;;15.00;99.90;;;;;;2618672;39;21376;31
2021/08/21 05:12:30;;;;;;;5.50;4.60;;;15.20;99.90;;;;;;2603789;46;20893;31
2021/08/21 05:15:15;;;;;;;6.43;4.20;;;15.20;99.90;;;;;;2603704;47;20896;31
2021/08/21 05:18:14;;;;;;;5.18;4.18;;;15.30;99.90;;;;;;2603699;46;20030;31
2021/08/21 05:21:04;;;;;;;5.80;4.40;;;15.50;99.90;;;;;;2602644;54;20046;31
2021/08/21 05:23:38;;;;;;;6.60;5.30;;;15.60;99.90;;;;;;2603297;54;20426;31
2021/08/21 05:26:09;;;;;;;8.10;6.60;;;15.70;99.90;;;;;;2603759;47;20030;31
2021/08/21 05:28:40;;;;;;;8.50;6.95;;;15.80;99.90;;;;;;2603607;47;20100;31
2021/08/21 05:31:14;;;;;;;6.30;5.40;;;15.80;99.90;;;;;;2603103;47;20038;31
2021/08/21 05:33:48;;;;;;;9.43;7.57;;;15.90;99.90;;;;;;2602905;47;20739;31
2021/08/21 05:36:19;;;;;;;8.90;7.15;;;15.90;99.90;;;;;;2603128;47;20857;31
2021/08/21 05:38:52;;;;;;;9.93;7.78;;;15.90;99.90;;;;;;2603159;54;20027;31
2021/08/21 05:41:22;;;;;;;11.18;7.63;;;15.90;99.90;;;;;;2603036;47;20027;31
2021/08/21 05:43:54;;;;;;;8.75;7.85;;;16.00;99.90;;;;;;2603760;47;21806;31
2021/08/21 05:46:25;;;;;;;8.35;6.90;;;16.00;99.90;;;;;;2603543;47;20821;31
2021/08/21 05:48:58;;;;;;;9.85;7.50;;;16.30;99.90;;;;;;2603580;47;20038;31
2021/08/21 05:51:30;;;;;;;7.85;7.00;;;16.50;99.90;;;;;;2603219;54;20058;31
2021/08/21 05:54:02;;;;;;;11.30;9.25;;;16.80;99.90;;;;;;2603477;47;20860;31
2021/08/21 05:56:33;;;;;;;10.80;9.70;;;17.00;99.90;;;;;;2603651;47;20085;31
2021/08/21 05:59:06;;;;;;;11.00;8.30;;;17.20;99.90;;;;;;2603854;46;20043;31
2021/08/21 06:01:40;;;;;;;10.60;9.50;;;17.50;99.90;;;;;;2603924;46;20065;31
2021/08/21 06:04:12;;;;;;;11.48;8.88;;;17.80;99.90;;;;;;2603876;54;20096;31
2021/08/21 06:06:44;;;;;;;11.60;9.10;;;18.00;99.90;;;;;;2604407;46;19961;31
2021/08/21 06:09:20;;;;;;;10.20;7.90;;;18.30;99.90;;;;;;2603807;54;20030;31
2021/08/21 06:11:52;;;;;;;10.07;9.07;;;18.50;99.90;;;;;;2604034;46;20030;31
2021/08/21 06:14:24;;;;;;;13.30;8.35;;;18.70;99.90;;;;;;2603866;54;20026;31
2021/08/21 06:16:55;;;;;;;12.07;8.00;;;18.90;99.90;;;;;;2603811;54;20843;31
2021/08/21 06:19:27;;;;;;;8.38;7.50;;;19.20;99.90;;;;;;2604242;46;20928;31
2021/08/21 06:21:58;;;;;;;11.48;8.40;;;19.40;99.90;;;;;;2604189;46;20889;31
2021/08/21 06:24:32;;;;;;;7.90;7.10;;;19.60;99.90;;;;;;2603297;46;20052;31
2021/08/21 06:27:07;;;;;;;9.93;9.00;;;19.90;99.90;;;;;;2603783;54;20026;31
2021/08/21 06:29:42;;;;;;;8.80;7.63;;;20.00;99.90;;;;;;2604156;46;20030;31
2021/08/21 06:32:16;;;;;;;10.25;9.00;;;20.10;99.90;;;;;;2604279;46;20919;31
2021/08/21 06:34:51;;;;;;;11.65;8.75;;;20.20;99.90;;;;;;2603943;46;20034;31
2021/08/21 06:37:23;;;;;;;12.13;8.57;;;20.50;99.90;;;;;;2603016;54;20942;31
2021/08/21 06:39:54;;;;;;;11.00;8.57;;;20.80;99.90;;;;;;2604145;46;20052;31
2021/08/21 06:42:28;;;;;;;11.27;8.90;;;21.00;99.90;;;;;;2606281;39;21006;31
2021/08/21 06:45:16;;;;;;;8.68;7.88;;;21.10;99.90;;;;;;2603865;46;20030;31
2021/08/21 06:47:51;;;;;;;9.25;8.10;;;21.30;99.90;;;;;;2603888;46;20082;31
2021/08/21 06:50:26;;;;;;;9.10;8.20;;;21.50;99.90;;;;;;2603933;46;20089;31
2021/08/21 06:52:57;;;;;;;9.90;8.25;;;21.60;99.90;;;;;;2603997;46;20036;31
2021/08/21 06:55:30;;;;;;;11.15;8.15;;;21.80;99.90;;;;;;2604050;46;21054;31
2021/08/21 06:58:11;;;;;;;11.10;8.00;;;22.00;99.90;;;;;;2603412;46;20508;31
2021/08/21 07:00:49;;;;;;;9.75;8.30;;;22.00;99.90;;;;;;2603826;46;20101;31
2021/08/21 07:03:20;;;;;;;13.65;8.60;;;22.10;99.90;;;;;;2628124;39;20298;31
2021/08/21 07:05:52;;;;;;;12.63;8.55;;;22.20;99.90;;;;;;2603164;54;20023;31
2021/08/21 07:08:23;;;;;;;10.20;8.85;;;22.50;99.90;;;;;;2604058;46;20863;31
2021/08/21 07:10:55;;;;;;;8.95;8.05;;;22.60;99.90;;;;;;2603782;54;21054;31
2021/08/21 07:13:29;;;;;;;10.18;8.93;;;22.70;99.90;;;;;;2604312;46;20030;31
2021/08/21 07:16:03;;;;;;;8.10;7.40;;;23.00;99.90;;;;;;2604192;46;20034;31
2021/08/21 07:18:34;;;;;;;9.35;8.23;;;23.10;99.90;;;;;;2603148;54;20951;31
2021/08/21 07:21:10;;;;;;;10.13;8.13;;;23.20;99.90;;;;;;2604192;46;20844;31
2021/08/21 07:23:43;;;;;;;9.57;7.80;;;23.40;99.90;;;;;;2604203;46;20031;31
2021/08/21 07:26:18;;;;;;;9.30;8.30;;;23.50;99.90;;;;;;2603657;46;20097;31
2021/08/21 07:28:50;;;;;;;9.68;8.77;;;23.60;99.90;;;;;;2603742;54;20861;31
2021/08/21 07:31:21;;;;;;;10.77;9.05;;;23.90;99.90;;;;;;2702302;39;20541;31
2021/08/21 07:33:53;;;;;;;11.63;7.87;;;24.00;99.90;;;;;;2603184;46;20031;31
2021/08/21 07:36:24;;;;;;;8.90;8.10;;;24.10;99.90;;;;;;2603503;54;19934;31
2021/08/21 07:38:56;;;;;;;9.25;8.30;;;24.30;99.90;;;;;;2603858;46;20022;31
2021/08/21 07:41:27;;;;;;;8.73;7.70;;;24.40;99.90;;;;;;2603884;46;20912;31
2021/08/21 07:43:58;;;;;;;8.40;7.60;;;24.60;99.90;;;;;;2603827;46;20886;31
2021/08/21 07:46:32;;;;;;;11.43;8.60;;;24.70;99.90;;;;;;2603813;46;20027;31
2021/08/21 07:49:06;;;;;;;8.85;7.97;;;25.00;99.90;;;;;;2603713;46;19934;31
2021/08/21 07:51:40;;;;;;;10.73;7.82;;;25.20;99.90;;;;;;2603776;46;21214;31
2021/08/21 07:54:14;;;;;;;9.88;8.95;;;25.30;99.90;;;;;;2603877;46;20026;31
2021/08/21 07:56:48;;;;;;;8.55;7.68;;;25.40;99.90;;;;;;2603455;54;20033;31
2021/08/21 07:59:22;;;;;;;8.70;7.55;;;25.50;99.90;;;;;;2603467;54;20878;31
2021/08/21 08:01:53;;;;;;;7.85;6.78;;;25.70;99.90;;;;;;2603913;46;20026;31
2021/08/21 08:04:25;;;;;;;8.60;7.60;;;25.80;99.90;;;;;;2603979;46;20093;31
2021/08/21 08:06:56;;;;;;;8.90;6.80;;;26.00;99.90;;;;;;2603998;46;20086;31
2021/08/21 08:09:28;;;;;;;36.65;10.07;;;26.10;99.90;;;;;;2603961;46;20085;31
2021/08/21 08:12:02;;;;;;;13.63;7.35;;;26.10;99.90;;;;;;2603742;46;20926;31
2021/08/21 08:14:34;;;;;;;7.82;6.80;;;26.30;99.90;;;;;;2604011;46;20863;31
2021/08/21 08:17:06;;;;;;;8.50;6.60;;;26.40;99.90;;;;;;2603903;46;20027;31
2021/08/21 08:19:38;;;;;;;7.47;6.67;;;26.50;99.90;;;;;;2603143;54;20073;31
2021/08/21 08:22:12;;;;;;;7.35;6.53;;;26.70;99.90;;;;;;2603901;46;20034;31
2021/08/21 08:24:44;;;;;;;8.40;7.50;;;26.80;99.90;;;;;;2701897;39;20489;31
2021/08/21 08:27:18;;;;;;;7.87;7.07;;;26.80;99.90;;;;;;2603983;46;20926;31
2021/08/21 08:29:48;;;;;;;11.40;6.78;;;27.00;99.90;;;;;;2603574;54;20066;31
2021/08/21 08:32:19;;;;;;;8.13;7.32;;;27.00;99.90;;;;;;2603828;46;20871;31
2021/08/21 08:34:50;;;;;;;7.15;6.45;;;27.20;99.90;;;;;;2603443;54;20894;31
2021/08/21 08:40:06;;;;;;;;;;;27.30;99.90;;;;;;2646639;53;20403;31
2021/08/21 08:42:43;;;;;;;7.93;6.30;;;27.60;99.90;;;;;;2607654;54;19934;31
2021/08/21 08:45:14;;;;;;;7.90;6.00;;;27.60;99.90;;;;;;2608103;46;20026;31
2021/08/21 08:47:45;;;;;;;8.10;6.05;;;27.70;99.90;;;;;;2608176;46;20060;31
2021/08/21 08:50:16;;;;;;;9.43;5.90;;;27.80;99.90;;;;;;2706967;38;20481;31
2021/08/21 08:52:47;;;;;;;6.80;5.80;;;27.90;99.90;;;;;;2607658;46;20026;31
2021/08/21 08:55:18;;;;;;;7.97;6.43;;;28.00;99.90;;;;;;2608169;46;20027;31
2021/08/21 08:57:53;;;;;;;7.43;6.00;;;28.10;99.90;;;;;;2607524;54;20038;31
2021/08/21 09:00:25;;;;;;;6.82;5.30;;;28.20;99.90;;;;;;2608012;46;20117;31
2021/08/21 09:02:57;;;;;;;8.82;5.85;;;28.30;99.90;;;;;;2607500;54;20976;31
2021/08/21 09:05:35;;;;;;;7.50;6.38;;;28.50;99.90;;;;;;2607632;46;20081;31
2021/08/21 09:08:06;;;;;;;7.32;5.45;;;28.60;99.90;;;;;;2608035;46;20028;31
2021/08/21 09:10:37;;;;;;;8.25;6.25;;;28.80;99.90;;;;;;2608022;46;20898;31
2021/08/21 09:13:12;;;;;;;8.77;7.88;;;28.70;99.90;;;;;;2607543;46;20802;31
2021/08/21 09:15:49;;;;;;;10.23;7.03;;;28.70;99.90;;;;;;2607583;54;20030;31
2021/08/21 09:18:21;;;;;;;7.32;6.22;;;28.70;99.90;;;;;;2607424;54;20960;31
2021/08/21 09:21:12;;;;;;;8.15;6.60;;;28.80;99.90;;;;;;2706435;38;20511;31
2021/08/21 09:23:44;;;;;;;7.68;6.88;;;28.50;99.90;;;;;;2607649;46;20909;31
2021/08/21 09:26:24;;;;;;;9.07;7.35;;;28.40;99.90;;;;;;2607688;46;20030;31
2021/08/21 09:28:57;;;;;;;8.65;6.65;;;28.30;99.90;;;;;;2607595;46;20589;31
2021/08/21 09:31:31;;;;;;;10.05;7.70;;;28.30;99.90;;;;;;2706350;38;20610;31
2021/08/21 09:34:03;;;;;;;9.15;7.13;;;28.50;99.90;;;;;;2706791;38;20504;31
2021/08/21 09:36:37;;;;;;;8.45;5.97;;;28.40;99.90;;;;;;2607954;46;20018;31
2021/08/21 09:39:15;;;;;;;9.15;6.20;;;28.40;99.90;;;;;;2607388;54;20591;31
2021/08/21 09:41:55;;;;;;;6.50;5.85;;;28.40;99.90;;;;;;2607350;54;20904;31
2021/08/21 09:44:27;;;;;;;7.35;5.68;;;28.50;99.90;;;;;;2607411;54;20867;31
2021/08/21 09:47:19;;;;;;;6.28;4.70;;;28.50;99.90;;;;;;2607442;54;20029;31
2021/08/21 09:49:50;;;;;;;8.23;6.03;;;28.70;99.90;;;;;;2606351;46;20042;31
2021/08/21 09:52:21;;;;;;;7.27;5.40;;;28.60;99.90;;;;;;2604050;46;20037;31
2021/08/21 09:55:06;;;;;;;6.40;5.80;;;28.80;99.90;;;;;;2603758;54;20616;31
2021/08/21 09:58:09;;;;;;;6.80;5.28;;;28.90;99.40;;;;;;2603864;46;20116;31
2021/08/21 10:00:40;;;;;;;6.78;5.10;;;28.90;99.90;;;;;;2603823;54;20030;31
2021/08/21 10:03:11;;;;;;;7.35;5.72;;;28.90;99.90;;;;;;2603962;46;20792;31
2021/08/21 10:05:47;;;;;;;9.20;6.20;;;28.90;99.90;;;;;;2603740;54;20038;31
2021/08/21 10:08:23;;;;;;;10.65;4.80;;;28.60;99.10;;;;;;2603797;54;20292;31
2021/08/21 10:10:54;;;;;;;5.80;4.28;;;28.30;99.70;;;;;;2604156;46;21164;31
2021/08/21 10:13:25;;;;;;;4.90;4.32;;;28.10;99.90;;;;;;2603916;46;20912;31
2021/08/21 10:15:57;;;;;;;7.05;4.45;;;28.10;99.50;;;;;;2603952;46;20030;31
2021/08/21 10:18:28;;;;;;;6.22;4.90;;;28.10;99.90;;;;;;2702506;39;20358;31
2021/08/21 10:20:59;;;;;;;4.63;3.75;;;28.10;99.90;;;;;;2603961;46;20837;31
2021/08/21 10:23:30;;;;;;;4.75;3.60;;;28.00;99.90;;;;;;2603924;46;20033;31
2021/08/21 10:26:06;;;;;;;3.33;2.10;;;28.10;99.70;;;;;;2603753;54;20857;31
2021/08/21 10:28:39;;;;;;;3.13;2.45;;;28.10;98.10;;;;;;2603888;46;20041;31
2021/08/21 10:31:40;;;;;;;3.90;3.10;;;28.00;97.60;;;;;;2603170;54;20038;31
2021/08/21 10:34:12;;;;;;;7.38;3.75;;;27.80;99.20;;;;;;2603724;54;20026;31
2021/08/21 10:36:58;;;;;;;3.83;3.20;;;27.80;98.80;;;;;;2603774;54;20898;31
2021/08/21 10:39:37;;;;;;;5.47;4.05;;;28.00;98.80;;;;;;2603837;46;20034;31
2021/08/21 10:42:27;;;;;;;4.78;3.83;;;28.10;99.30;;;;;;2603999;46;19989;31
2021/08/21 10:44:59;;;;;;;3.67;3.30;;;28.10;98.70;;;;;;2604027;46;20042;31
2021/08/21 10:47:30;;;;;;;6.00;3.20;;;28.10;99.00;;;;;;2603878;46;20026;31
2021/08/21 10:50:08;;;;;;;4.18;3.13;;;27.90;99.00;;;;;;2604230;46;20064;31
2021/08/21 10:53:22;;;;;;;6.20;3.70;;;27.80;99.30;;;;;;2603005;54;20027;31
2021/08/21 10:55:53;;;;;;;4.65;3.33;;;27.60;99.30;;;;;;2702138;39;20512;31
2021/08/21 10:58:28;;;;;;;5.20;3.50;;;27.60;99.40;;;;;;2603584;54;20114;31
2021/08/21 11:01:08;;;;;;;5.60;3.67;;;27.60;99.50;;;;;;2603551;54;20033;31
2021/08/21 11:03:42;;;;;;;5.87;3.37;;;27.70;99.90;;;;;;2603461;54;20034;31
2021/08/21 11:06:14;;;;;;;4.10;3.70;;;27.70;99.90;;;;;;2603899;46;20254;31
2021/08/21 11:08:56;;;;;;;4.30;3.90;;;27.60;99.90;;;;;;2603563;54;20094;31
2021/08/21 11:11:38;;;;;;;5.55;3.95;;;27.40;99.70;;;;;;2603691;46;20079;31
2021/08/21 11:14:26;;;;;;;5.50;3.90;;;27.50;99.90;;;;;;2604073;46;20145;31
2021/08/21 11:17:30;;;;;;;5.43;3.97;;;27.40;99.30;;;;;;2603541;54;20109;31
2021/08/21 11:20:20;;;;;;;8.82;4.10;;;27.30;99.60;;;;;;2603490;54;20804;31
2021/08/21 11:23:06;;;;;;;7.27;4.00;;;27.30;99.90;;;;;;2603740;46;20661;31
2021/08/21 11:25:37;;;;;;;;;;;27.20;99.80;;;;;;2603984;46;19934;31
2021/08/21 11:28:12;;;;;;;3.70;3.40;;;27.20;99.90;;;;;;2603848;46;19989;31
2021/08/21 11:30:43;;;;;;;7.22;4.30;;;27.20;99.90;;;;;;2603474;54;20818;31
2021/08/21 11:33:14;;;;;;;5.10;4.07;;;27.30;99.90;;;;;;2603827;46;20081;31
2021/08/21 11:35:53;;;;;;;4.18;3.72;;;27.30;99.90;;;;;;2603778;46;20886;31
2021/08/21 11:38:32;;;;;;;5.30;3.45;;;27.20;99.90;;;;;;2603730;46;20894;31
2021/08/21 11:41:12;;;;;;;5.68;3.97;;;27.30;99.90;;;;;;2603349;54;20038;31
2021/08/21 11:43:43;;;;;;;4.00;3.57;;;27.40;99.90;;;;;;2603697;46;20038;31
2021/08/21 11:46:23;;;;;;;6.93;3.60;;;27.50;99.90;;;;;;2603421;54;20034;31
2021/08/21 11:48:54;;;;;;;4.22;3.83;;;27.60;99.90;;;;;;2603882;46;21155;31
2021/08/21 11:51:25;;;;;;;3.83;3.53;;;27.70;99.90;;;;;;2603623;46;20034;31
2021/08/21 11:53:56;;;;;;;5.38;4.00;;;27.60;99.90;;;;;;2603989;46;20586;31
2021/08/21 11:56:28;;;;;;;5.45;3.53;;;27.50;99.60;;;;;;2702003;39;20327;31
2021/08/21 11:59:08;;;;;;;5.85;3.42;;;27.50;99.60;;;;;;2603732;46;20886;31
2021/08/21 12:01:44;;;;;;;4.90;4.40;;;27.50;99.50;;;;;;2603350;54;20950;31
2021/08/21 12:06:46;;;;;;;5.03;3.90;;;27.40;99.90;;;;;;2603772;46;20034;31
2021/08/21 12:09:17;;;;;;;4.47;4.07;;;27.30;99.20;;;;;;2603489;47;20030;31
2021/08/21 12:11:49;;;;;;;4.15;3.10;;;27.20;99.90;;;;;;2603575;46;20850;31
2021/08/21 12:14:23;;;;;;;3.55;3.25;;;27.20;99.90;;;;;;2603284;54;20593;31
2021/08/21 12:16:55;;;;;;;5.70;3.33;;;27.20;99.90;;;;;;2603812;46;20114;31
2021/08/21 12:19:28;;;;;;;4.67;3.80;;;27.10;99.70;;;;;;2603764;46;20026;31
2021/08/21 12:21:59;;;;;;;3.85;3.40;;;27.10;99.90;;;;;;2603270;54;21130;31
2021/08/21 12:24:30;;;;;;;5.55;3.50;;;27.10;99.80;;;;;;2701897;39;20577;31
2021/08/21 12:27:01;;;;;;;4.15;3.67;;;27.10;99.30;;;;;;2603426;46;20033;31
2021/08/21 12:29:32;;;;;;;4.10;3.15;;;27.20;99.70;;;;;;2603232;54;20914;31
2021/08/21 12:32:03;;;;;;;14.73;3.75;;;27.20;99.90;;;;;;2603362;47;20049;31
2021/08/21 12:34:36;;;;;;;7.95;3.33;;;27.30;99.90;;;;;;2603425;47;20893;31
2021/08/21 12:37:07;;;;;;;11.60;3.75;;;27.40;99.10;;;;;;2603578;47;20065;31
2021/08/21 12:39:42;;;;;;;3.42;3.13;;;27.40;99.20;;;;;;2603174;54;20031;31
2021/08/21 12:42:20;;;;;;;8.80;3.60;;;27.40;98.40;;;;;;2702257;39;20513;31
2021/08/21 12:44:51;;;;;;;4.13;3.10;;;27.40;98.50;;;;;;2603585;47;20988;31
2021/08/21 12:47:22;;;;;;;5.78;3.38;;;27.30;99.40;;;;;;2603351;47;20037;31
2021/08/21 12:49:57;;;;;;;12.45;4.50;;;27.20;99.40;;;;;;2603344;47;20030;31
2021/08/21 12:52:29;;;;;;;4.17;3.27;;;27.10;99.30;;;;;;2603329;47;20446;31
2021/08/21 12:55:01;;;;;;;3.80;3.10;;;27.10;99.50;;;;;;2603129;54;20034;31
2021/08/21 12:57:33;;;;;;;4.50;3.53;;;27.10;99.30;;;;;;2603667;47;20873;31
2021/08/21 13:00:22;;;;;;;4.85;3.60;;;27.10;99.50;;;;;;2603172;47;20026;31
2021/08/21 13:02:53;;;;;;;5.72;4.07;;;27.20;99.70;;;;;;2603252;47;20855;31
2021/08/21 13:05:27;;;;;;;4.53;3.22;;;27.00;98.60;;;;;;2603285;47;20035;31
2021/08/21 13:08:06;;;;;;;3.35;3.05;;;27.00;99.20;;;;;;2603264;47;20023;31
2021/08/21 13:10:37;;;;;;;6.35;3.70;;;27.10;99.70;;;;;;2603182;54;20034;31
2021/08/21 13:13:12;;;;;;;3.50;3.15;;;27.10;99.60;;;;;;2603254;47;20022;31
2021/08/21 13:15:42;;;;;;;5.97;3.10;;;27.20;99.00;;;;;;2602553;47;20101;31
2021/08/21 13:18:14;;;;;;;4.45;2.75;;;27.20;98.50;;;;;;2603488;47;20254;31
2021/08/21 13:20:45;;;;;;;3.00;2.70;;;27.20;99.00;;;;;;2603107;47;20053;31
2021/08/21 13:23:16;;;;;;;4.10;3.45;;;27.20;99.10;;;;;;2603268;47;19940;31
2021/08/21 13:25:47;;;;;;;3.47;2.80;;;27.30;98.60;;;;;;2603344;54;20057;31
2021/08/21 13:28:19;;;;;;;7.78;4.40;;;27.20;99.00;;;;;;2604292;46;20897;31
2021/08/21 13:30:50;;;;;;;29.45;7.20;;;27.20;98.50;;;;;;2604272;46;20887;31
2021/08/21 13:33:21;;;;;;;9.80;4.70;;;27.20;98.40;;;;;;2603934;54;20030;31
2021/08/21 13:35:52;;;;;;;6.28;4.05;;;27.10;99.50;;;;;;2604010;46;20884;31
2021/08/21 13:38:23;;;;;;;4.15;3.75;;;27.10;99.60;;;;;;2774171;31;20573;31
2021/08/21 13:40:54;;;;;;;5.88;4.40;;;27.00;99.90;;;;;;2604087;46;20027;31